WEATHER DATA

YESTERDAY
Time Temp. Dewp. Hum. Wind dir Wind speed Wind gust Bar.
00:05 0.1 0 99 0 0 1027.5
00:15 0 -0.1 99 0 0 1027.4
00:25 0 -0.1 99 0 0 1027.3
00:34 0 -0.1 99 0 0 1027.4
00:45 0 -0.1 99 0 0 1027.4
00:55 -0.1 -0.2 99 0 0 1027.3
01:05 -0.1 -0.2 99 0 0 1027.2
01:15 -0.1 -0.2 99 0 0 1026.9
01:25 -0.1 -0.2 99 0 0 1027
01:35 -0.1 -0.2 99 0 0 1026.9
01:45 -0.1 -0.2 99 0 0 1026.8
01:55 -0.2 -0.3 99 0 0 1026.9
02:05 -0.2 -0.3 99 0 0 1027
02:15 -0.2 -0.3 99 0 0 1027
02:26 -0.2 -0.3 99 0 0 1027
02:35 -0.2 -0.3 99 0 0 1026.9
02:45 -0.2 -0.3 99 0 0 1026.9
02:55 -0.2 -0.3 99 0 0 1026.8
03:06 -0.2 -0.3 99 0 0 1026.7
03:16 -0.2 -0.3 99 0 0 1026.8
03:25 -0.2 -0.3 99 0 0 1026.9
03:36 -0.2 -0.3 99 0 0 1027
03:46 -0.2 -0.4 98 0 0 1026.9
03:56 -0.2 -0.4 98 0 0 1026.8
04:06 -0.2 -0.4 98 0 0 1026.7
04:16 -0.3 -0.5 98 0 0 1026.6
04:26 -0.3 -0.5 98 0 0 1026.6
04:36 -0.3 -0.5 98 0 0 1026.6
04:46 -0.3 -0.5 98 0 0 1026.4
04:56 -0.3 -0.7 97 0 0 1026.4
05:06 -0.4 -0.8 97 0 0 1026.4
05:16 -0.4 -0.8 97 0 0 1026.3
05:27 -0.4 -0.8 97 0 0 1026.4
05:36 -0.4 -0.8 97 0 0 1026.2
05:46 -0.4 -0.8 97 0 0 1026.1
05:57 -0.4 -0.8 97 0 0 1026.1
06:07 -0.4 -0.8 97 0 0 1026.1
06:16 -0.5 -0.9 97 0 0 1026
06:26 -0.5 -0.9 97 0 0 1026
06:37 -0.5 -1 96 0 0 1025.7
06:47 -0.5 -1 96 0 0 1025.8
06:56 -0.5 -1 96 0 0 1025.7
07:07 -0.6 -1.1 96 0 0 1025.6
07:17 -0.6 -1.1 96 0 0 1025.6
07:27 -0.6 -1 97 0 0 1025.6
07:37 -0.6 -1 97 0 0 1025.7
07:47 -0.6 -1 97 0 0 1025.7
07:57 -0.6 -1 97 0 0 1025.6
08:07 -0.6 -1.1 96 0 0 1025.8
08:18 -0.7 -1.2 96 0 0 1025.8
08:27 -0.7 -1.1 97 0 0 1026
08:37 -0.7 -1.1 97 0 0 1025.8
08:47 -0.7 -0.9 98 0 0 1025.8
08:58 -0.7 -0.9 98 0 0 1025.8
09:07 -0.8 -1 98 0 0 1025.7
09:17 -0.8 -1 98 0 0 1025.9
09:28 -0.8 -1 98 0 0 1026
09:38 -0.7 -0.9 98 0 0 1026
09:48 -0.7 -0.9 98 0 0 1026
09:58 -0.7 -0.9 98 0 0 1026.1
10:08 -0.7 -0.9 98 0 0 1026
10:18 -0.6 -0.8 98 0 0 1026.1
10:28 -0.6 -0.8 98 0 0 1026.1
10:38 -0.6 -0.8 98 0 0 1026.2
10:48 -0.6 -0.8 98 0 0 1026.2
10:58 -0.5 -0.7 98 0 0 1026.2
11:08 -0.5 -0.7 98 0 0 1026.1
11:18 -0.5 -0.7 98 0 0 1026
11:28 -0.5 -0.9 97 0 0 1025.9
11:38 -0.4 -0.8 97 0 0 1025.9
11:49 -0.4 -0.8 97 0 0 1025.8
11:58 -0.4 -0.9 96 0 0 1025.8
12:08 -0.4 -0.9 96 0 0 1025.7
12:19 -0.4 -0.9 96 0 0 1025.7
12:29 -0.4 -0.9 96 0 0 1025.8
12:39 -0.4 -0.9 96 0 0 1025.7
12:48 -0.4 -0.9 96 0 0 1025.7
12:59 -0.4 -0.8 97 0 0 1025.7
13:09 -0.5 -0.9 97 0 0 1025.8
13:19 -0.5 -0.9 97 0 0 1025.8
13:29 -0.5 -0.9 97 0 0 1025.9
13:39 -0.5 -0.9 97 0 0 1025.9
13:49 -0.5 -0.9 97 0 0 1026
13:59 -0.5 -0.9 97 0 0 1026
14:09 -0.5 -0.9 97 0 0 1025.9
14:19 -0.5 -0.9 97 0 0 1025.9
14:29 -0.6 -1 97 0 0 1025.8
14:40 -0.6 -1 97 0 0 1025.8
14:50 -0.6 -1 97 0 0 1025.8
14:59 -0.6 -1 97 0 0 1025.7
15:09 -0.7 -1.1 97 0 0 1025.4
15:20 -0.7 -0.9 98 0 0 1025.1
15:30 -0.8 -1 98 0 0 1025.1
15:39 -0.8 -1 98 0 0 1025
15:50 -0.9 -1.1 98 0 0 1025
16:00 -0.9 -1.1 98 0 0 1025.2
16:10 -0.9 -1.1 98 0 0 1025.3
16:20 -0.9 -1.1 98 0 0 1025.3
16:30 -1 -1.2 98 0 0 1025.4
16:40 -1 -1.2 98 0 0 1025.3
16:50 -1 -1.2 98 0 0 1025.1
17:01 -1 -1.2 98 0 0 1024.8
17:10 -1.1 -1.3 98 0 0 1025
17:20 -1.1 -1.3 98 0 0 1025.3
17:30 -1.1 -1.3 98 0 0 1025.3
17:41 -1 -1.1 99 0 0 1025.4
17:50 -1 -1.1 99 0 0 1025.1
18:00 -1.1 -1.2 99 0 0 1025.1
18:11 -1.1 -1.2 99 0 0 1025.1
18:21 -1.2 -1.3 99 0 0 1025.2
18:30 -1.2 -1.3 99 0 0 1025
18:40 -1.2 -1.3 99 0 0 1025
18:51 -1.2 -1.3 99 0 0 1025.3
19:01 -1.2 -1.3 99 0 0 1025.1
19:11 -1.2 -1.3 99 0 0 1025.2
19:21 -1.2 -1.3 99 0 0 1025
19:31 -1.2 -1.3 99 0 0 1025
19:41 -1.1 -1.2 99 0 0 1025.1
19:51 -1.1 -1.3 98 0 0 1024.8
20:01 -1 -1.2 98 0 0 1024.6
20:11 -1 -1.2 98 0 0 1024.8
20:21 -0.9 -1.1 98 0 0 1024.5
20:32 -0.9 -1.1 98 0 0 1024.4
20:41 -0.9 -1.1 98 0 0 1024.3
20:51 -0.8 -1 98 0 0 1024.3
21:01 -0.8 -1 98 0 0 1024.6
21:12 -0.8 -1 98 0 0 1024.5
21:22 -0.7 -0.9 98 0 0 1024.2
21:31 -0.7 -0.9 98 0 0 1024.6
21:42 -0.7 -0.9 98 0 0 1024.4
21:52 -0.7 -0.9 98 0 0 1024.2
22:02 -0.7 -0.9 98 0 0 1024.2
22:12 -0.7 -1.1 97 0 0 1024.2
22:22 -0.7 -1.1 97 0 0 1024.1
22:32 -0.6 -1 97 0 0 1024.1
22:42 -0.6 -1 97 0 0 1024.2
22:52 -0.6 -1 97 0 0 1024.2
23:02 -0.6 -1 97 0 0 1024
23:12 -0.6 -1.1 96 0 0 1024.1
23:22 -0.6 -1.1 96 0 0 1024
23:33 -0.7 -1.2 96 0 0 1024
23:42 -0.7 -1.2 96 0 0 1023.9
23:52 -0.7 -1.2 96 0 0 1023.7

DAY STATISTIC

2022-01-26
TEMPERATURE
AVERAGE
-0.6
HIGH
0.1
00:05
LOW
-1.2
18:21
PRESSURE
AVERAGE
1025.7
HIGH
1027.5
00:05
LOW
1023.7
23:52
DEWPOINT
AVERAGE
-0.9
HIGH
0.0
00:05
LOW
-1.3
17:10
HUMIDITY
AVERAGE
98
HIGH
99
00:05
LOW
96
06:37
WIND SPEED
AVERAGE
0.0
HIGH
0.0
18:28
WIND GUST
AVERAGE
0.0
HIGH
0.0
18:28
WIND DIRECTION
PREVAILING
%
TEMPERATURE (°C)
LOW
-1.2
HIGH
0.1
AVERAGE
-0.6
PRESSURE (hpa)
LOW
1023.7
HIGH
1027.5
AVERAGE
1025.7
DEVICE